sensor_id;sensor_type;location;lat;lon;timestamp;P1;durP1;ratioP1;P2;durP2;ratioP2
20008;SDS011;10165;42.662;23.260;2023-05-17T00:00:12;10.33;;;6.23;;
20008;SDS011;10165;42.662;23.260;2023-05-17T00:02:39;9.30;;;6.87;;
20008;SDS011;10165;42.662;23.260;2023-05-17T00:05:06;10.40;;;6.20;;
20008;SDS011;10165;42.662;23.260;2023-05-17T00:07:33;9.00;;;6.20;;
20008;SDS011;10165;42.662;23.260;2023-05-17T00:10:00;9.93;;;5.57;;
20008;SDS011;10165;42.662;23.260;2023-05-17T00:12:27;12.13;;;5.87;;
20008;SDS011;10165;42.662;23.260;2023-05-17T00:14:54;12.93;;;6.37;;
20008;SDS011;10165;42.662;23.260;2023-05-17T00:17:20;12.03;;;6.13;;
20008;SDS011;10165;42.662;23.260;2023-05-17T00:19:47;14.87;;;6.63;;
20008;SDS011;10165;42.662;23.260;2023-05-17T00:22:14;8.43;;;6.10;;
20008;SDS011;10165;42.662;23.260;2023-05-17T00:24:40;13.63;;;7.13;;
20008;SDS011;10165;42.662;23.260;2023-05-17T00:27:07;13.50;;;7.87;;
20008;SDS011;10165;42.662;23.260;2023-05-17T00:29:34;13.53;;;6.50;;
20008;SDS011;10165;42.662;23.260;2023-05-17T00:32:00;10.37;;;6.37;;
20008;SDS011;10165;42.662;23.260;2023-05-17T00:34:28;16.00;;;6.93;;
20008;SDS011;10165;42.662;23.260;2023-05-17T00:36:55;13.67;;;6.70;;
20008;SDS011;10165;42.662;23.260;2023-05-17T00:39:21;18.10;;;7.53;;
20008;SDS011;10165;42.662;23.260;2023-05-17T00:41:48;11.93;;;6.80;;
20008;SDS011;10165;42.662;23.260;2023-05-17T00:44:15;12.00;;;6.83;;
20008;SDS011;10165;42.662;23.260;2023-05-17T00:46:42;11.63;;;7.67;;
20008;SDS011;10165;42.662;23.260;2023-05-17T00:49:08;11.23;;;7.17;;
20008;SDS011;10165;42.662;23.260;2023-05-17T00:51:35;13.70;;;6.63;;
20008;SDS011;10165;42.662;23.260;2023-05-17T00:54:02;9.57;;;6.87;;
20008;SDS011;10165;42.662;23.260;2023-05-17T00:56:30;10.63;;;6.67;;
20008;SDS011;10165;42.662;23.260;2023-05-17T00:58:59;9.03;;;7.17;;
20008;SDS011;10165;42.662;23.260;2023-05-17T01:01:26;11.70;;;7.03;;
20008;SDS011;10165;42.662;23.260;2023-05-17T01:03:52;16.43;;;7.83;;
20008;SDS011;10165;42.662;23.260;2023-05-17T01:06:19;9.50;;;7.13;;
20008;SDS011;10165;42.662;23.260;2023-05-17T01:08:46;14.00;;;8.30;;
20008;SDS011;10165;42.662;23.260;2023-05-17T01:11:16;14.97;;;8.07;;
20008;SDS011;10165;42.662;23.260;2023-05-17T01:13:59;15.00;;;8.00;;
20008;SDS011;10165;42.662;23.260;2023-05-17T01:16:53;10.33;;;6.73;;
20008;SDS011;10165;42.662;23.260;2023-05-17T01:27:49;11.77;;;7.37;;
20008;SDS011;10165;42.662;23.260;2023-05-17T01:30:19;9.50;;;6.37;;
20008;SDS011;10165;42.662;23.260;2023-05-17T01:32:50;14.40;;;7.70;;
20008;SDS011;10165;42.662;23.260;2023-05-17T01:35:21;12.93;;;6.90;;
20008;SDS011;10165;42.662;23.260;2023-05-17T01:37:48;12.57;;;6.17;;
20008;SDS011;10165;42.662;23.260;2023-05-17T01:40:15;21.57;;;7.00;;
20008;SDS011;10165;42.662;23.260;2023-05-17T01:42:42;14.00;;;6.67;;
20008;SDS011;10165;42.662;23.260;2023-05-17T01:51:07;12.93;;;7.30;;
20008;SDS011;10165;42.662;23.260;2023-05-17T01:53:41;12.23;;;6.53;;
20008;SDS011;10165;42.662;23.260;2023-05-17T01:56:14;10.40;;;7.20;;
20008;SDS011;10165;42.662;23.260;2023-05-17T01:58:45;13.10;;;6.77;;
20008;SDS011;10165;42.662;23.260;2023-05-17T02:01:14;12.43;;;7.10;;
20008;SDS011;10165;42.662;23.260;2023-05-17T02:03:43;9.93;;;6.13;;
20008;SDS011;10165;42.662;23.260;2023-05-17T02:06:15;11.20;;;7.07;;
20008;SDS011;10165;42.662;23.260;2023-05-17T02:08:42;12.23;;;7.00;;
20008;SDS011;10165;42.662;23.260;2023-05-17T02:11:09;11.53;;;7.20;;
20008;SDS011;10165;42.662;23.260;2023-05-17T02:13:35;8.03;;;6.00;;
20008;SDS011;10165;42.662;23.260;2023-05-17T02:16:02;9.77;;;6.83;;
20008;SDS011;10165;42.662;23.260;2023-05-17T02:18:29;15.53;;;6.90;;
20008;SDS011;10165;42.662;23.260;2023-05-17T02:20:58;10.13;;;7.53;;
20008;SDS011;10165;42.662;23.260;2023-05-17T02:23:24;12.63;;;6.63;;
20008;SDS011;10165;42.662;23.260;2023-05-17T02:25:51;13.30;;;5.77;;
20008;SDS011;10165;42.662;23.260;2023-05-17T02:28:18;13.33;;;5.63;;
20008;SDS011;10165;42.662;23.260;2023-05-17T02:30:44;10.33;;;5.37;;
20008;SDS011;10165;42.662;23.260;2023-05-17T02:33:11;10.67;;;5.47;;
20008;SDS011;10165;42.662;23.260;2023-05-17T02:35:38;11.87;;;5.73;;
20008;SDS011;10165;42.662;23.260;2023-05-17T02:38:05;8.70;;;5.50;;
20008;SDS011;10165;42.662;23.260;2023-05-17T02:40:32;7.80;;;4.83;;
20008;SDS011;10165;42.662;23.260;2023-05-17T02:42:58;14.47;;;5.47;;
20008;SDS011;10165;42.662;23.260;2023-05-17T02:45:25;8.53;;;4.87;;
20008;SDS011;10165;42.662;23.260;2023-05-17T02:47:52;7.07;;;4.93;;
20008;SDS011;10165;42.662;23.260;2023-05-17T02:50:19;8.33;;;5.17;;
20008;SDS011;10165;42.662;23.260;2023-05-17T02:52:46;13.13;;;5.67;;
20008;SDS011;10165;42.662;23.260;2023-05-17T02:55:13;11.20;;;5.67;;
20008;SDS011;10165;42.662;23.260;2023-05-17T02:57:39;8.30;;;5.53;;
20008;SDS011;10165;42.662;23.260;2023-05-17T03:00:06;10.47;;;5.10;;
20008;SDS011;10165;42.662;23.260;2023-05-17T03:02:34;5.50;;;4.30;;
20008;SDS011;10165;42.662;23.260;2023-05-17T03:05:01;13.33;;;4.83;;
20008;SDS011;10165;42.662;23.260;2023-05-17T03:07:28;9.57;;;5.30;;
20008;SDS011;10165;42.662;23.260;2023-05-17T03:09:55;19.90;;;5.87;;
20008;SDS011;10165;42.662;23.260;2023-05-17T03:12:21;8.43;;;4.80;;
20008;SDS011;10165;42.662;23.260;2023-05-17T03:14:48;7.00;;;4.20;;
20008;SDS011;10165;42.662;23.260;2023-05-17T03:17:15;9.97;;;4.97;;
20008;SDS011;10165;42.662;23.260;2023-05-17T03:19:41;7.77;;;5.23;;
20008;SDS011;10165;42.662;23.260;2023-05-17T03:22:08;11.70;;;5.53;;
20008;SDS011;10165;42.662;23.260;2023-05-17T03:24:35;10.23;;;4.93;;
20008;SDS011;10165;42.662;23.260;2023-05-17T03:27:01;10.90;;;5.37;;
20008;SDS011;10165;42.662;23.260;2023-05-17T03:29:29;9.93;;;6.73;;
20008;SDS011;10165;42.662;23.260;2023-05-17T03:31:55;14.63;;;6.83;;
20008;SDS011;10165;42.662;23.260;2023-05-17T03:34:22;13.10;;;6.50;;
20008;SDS011;10165;42.662;23.260;2023-05-17T03:36:49;8.83;;;6.07;;
20008;SDS011;10165;42.662;23.260;2023-05-17T03:39:15;12.07;;;5.90;;
20008;SDS011;10165;42.662;23.260;2023-05-17T03:41:42;8.30;;;5.43;;
20008;SDS011;10165;42.662;23.260;2023-05-17T03:44:09;10.47;;;5.73;;
20008;SDS011;10165;42.662;23.260;2023-05-17T03:46:36;8.40;;;5.43;;
20008;SDS011;10165;42.662;23.260;2023-05-17T03:49:02;14.77;;;5.13;;
20008;SDS011;10165;42.662;23.260;2023-05-17T03:51:29;14.40;;;5.50;;
20008;SDS011;10165;42.662;23.260;2023-05-17T03:53:57;13.87;;;6.10;;
20008;SDS011;10165;42.662;23.260;2023-05-17T03:56:24;10.53;;;6.60;;
20008;SDS011;10165;42.662;23.260;2023-05-17T03:58:51;14.93;;;6.00;;
20008;SDS011;10165;42.662;23.260;2023-05-17T04:01:17;13.60;;;6.43;;
20008;SDS011;10165;42.662;23.260;2023-05-17T04:03:46;12.43;;;7.00;;
20008;SDS011;10165;42.662;23.260;2023-05-17T04:06:13;12.20;;;6.47;;
20008;SDS011;10165;42.662;23.260;2023-05-17T04:08:40;12.57;;;6.47;;
20008;SDS011;10165;42.662;23.260;2023-05-17T04:11:06;12.83;;;6.80;;
20008;SDS011;10165;42.662;23.260;2023-05-17T04:13:39;14.73;;;6.90;;
20008;SDS011;10165;42.662;23.260;2023-05-17T04:16:06;12.67;;;7.47;;
20008;SDS011;10165;42.662;23.260;2023-05-17T04:18:35;11.03;;;6.50;;
20008;SDS011;10165;42.662;23.260;2023-05-17T04:21:03;14.30;;;7.97;;
20008;SDS011;10165;42.662;23.260;2023-05-17T04:23:31;16.90;;;11.57;;
20008;SDS011;10165;42.662;23.260;2023-05-17T04:25:58;14.77;;;8.67;;
20008;SDS011;10165;42.662;23.260;2023-05-17T04:28:25;10.97;;;7.63;;
20008;SDS011;10165;42.662;23.260;2023-05-17T04:30:52;16.50;;;8.27;;
20008;SDS011;10165;42.662;23.260;2023-05-17T04:33:19;15.13;;;7.43;;
20008;SDS011;10165;42.662;23.260;2023-05-17T04:35:46;17.27;;;8.43;;
20008;SDS011;10165;42.662;23.260;2023-05-17T04:38:13;15.40;;;9.10;;
20008;SDS011;10165;42.662;23.260;2023-05-17T04:40:39;16.47;;;8.43;;
20008;SDS011;10165;42.662;23.260;2023-05-17T04:43:06;15.90;;;8.00;;
20008;SDS011;10165;42.662;23.260;2023-05-17T04:45:33;13.27;;;7.37;;
20008;SDS011;10165;42.662;23.260;2023-05-17T04:48:00;12.90;;;8.07;;
20008;SDS011;10165;42.662;23.260;2023-05-17T04:50:27;18.13;;;8.67;;
20008;SDS011;10165;42.662;23.260;2023-05-17T04:52:54;17.90;;;9.20;;
20008;SDS011;10165;42.662;23.260;2023-05-17T04:55:21;13.47;;;8.60;;
20008;SDS011;10165;42.662;23.260;2023-05-17T04:57:48;19.00;;;9.50;;
20008;SDS011;10165;42.662;23.260;2023-05-17T05:00:15;22.37;;;9.83;;
20008;SDS011;10165;42.662;23.260;2023-05-17T05:02:42;16.07;;;8.50;;
20008;SDS011;10165;42.662;23.260;2023-05-17T05:05:09;24.07;;;10.20;;
20008;SDS011;10165;42.662;23.260;2023-05-17T05:07:36;14.47;;;9.20;;
20008;SDS011;10165;42.662;23.260;2023-05-17T05:10:05;14.50;;;9.57;;
20008;SDS011;10165;42.662;23.260;2023-05-17T05:12:32;20.97;;;10.23;;
20008;SDS011;10165;42.662;23.260;2023-05-17T05:14:59;18.23;;;9.80;;
20008;SDS011;10165;42.662;23.260;2023-05-17T05:17:27;19.23;;;10.07;;
20008;SDS011;10165;42.662;23.260;2023-05-17T05:19:55;21.77;;;10.57;;
20008;SDS011;10165;42.662;23.260;2023-05-17T05:22:22;16.43;;;10.07;;
20008;SDS011;10165;42.662;23.260;2023-05-17T05:24:49;16.33;;;10.17;;
20008;SDS011;10165;42.662;23.260;2023-05-17T05:27:16;16.77;;;10.13;;
20008;SDS011;10165;42.662;23.260;2023-05-17T05:29:42;18.53;;;9.70;;
20008;SDS011;10165;42.662;23.260;2023-05-17T05:32:09;22.03;;;10.60;;
20008;SDS011;10165;42.662;23.260;2023-05-17T05:34:37;20.87;;;10.77;;
20008;SDS011;10165;42.662;23.260;2023-05-17T05:37:04;16.90;;;10.33;;
20008;SDS011;10165;42.662;23.260;2023-05-17T05:39:31;14.40;;;9.63;;
20008;SDS011;10165;42.662;23.260;2023-05-17T05:41:57;14.77;;;9.67;;
20008;SDS011;10165;42.662;23.260;2023-05-17T05:44:24;16.13;;;9.47;;
20008;SDS011;10165;42.662;23.260;2023-05-17T05:46:51;17.77;;;9.30;;
20008;SDS011;10165;42.662;23.260;2023-05-17T05:49:18;19.17;;;10.23;;
20008;SDS011;10165;42.662;23.260;2023-05-17T05:51:44;19.53;;;8.33;;
20008;SDS011;10165;42.662;23.260;2023-05-17T05:54:12;14.70;;;8.80;;
20008;SDS011;10165;42.662;23.260;2023-05-17T05:56:39;19.57;;;9.47;;
20008;SDS011;10165;42.662;23.260;2023-05-17T05:59:06;16.10;;;9.50;;
20008;SDS011;10165;42.662;23.260;2023-05-17T06:01:32;13.30;;;8.53;;
20008;SDS011;10165;42.662;23.260;2023-05-17T06:03:59;16.87;;;8.87;;
20008;SDS011;10165;42.662;23.260;2023-05-17T06:06:26;20.87;;;8.93;;
20008;SDS011;10165;42.662;23.260;2023-05-17T06:08:53;18.77;;;10.27;;
20008;SDS011;10165;42.662;23.260;2023-05-17T06:11:21;11.43;;;8.27;;
20008;SDS011;10165;42.662;23.260;2023-05-17T06:13:49;14.63;;;8.33;;
20008;SDS011;10165;42.662;23.260;2023-05-17T06:16:15;14.17;;;8.53;;
20008;SDS011;10165;42.662;23.260;2023-05-17T06:18:42;18.13;;;8.97;;
20008;SDS011;10165;42.662;23.260;2023-05-17T06:21:09;14.23;;;7.87;;
20008;SDS011;10165;42.662;23.260;2023-05-17T06:23:38;18.30;;;8.90;;
20008;SDS011;10165;42.662;23.260;2023-05-17T06:26:05;12.53;;;7.27;;
20008;SDS011;10165;42.662;23.260;2023-05-17T06:28:38;10.83;;;6.87;;
20008;SDS011;10165;42.662;23.260;2023-05-17T06:31:04;19.17;;;8.13;;
20008;SDS011;10165;42.662;23.260;2023-05-17T06:33:31;13.33;;;7.93;;
20008;SDS011;10165;42.662;23.260;2023-05-17T06:36:00;13.77;;;7.03;;
20008;SDS011;10165;42.662;23.260;2023-05-17T06:38:28;14.60;;;7.67;;
20008;SDS011;10165;42.662;23.260;2023-05-17T06:40:55;16.83;;;8.07;;
20008;SDS011;10165;42.662;23.260;2023-05-17T06:43:23;14.03;;;6.70;;
20008;SDS011;10165;42.662;23.260;2023-05-17T06:45:50;15.27;;;7.23;;
20008;SDS011;10165;42.662;23.260;2023-05-17T06:48:17;11.73;;;6.80;;
20008;SDS011;10165;42.662;23.260;2023-05-17T06:50:43;16.87;;;7.37;;
20008;SDS011;10165;42.662;23.260;2023-05-17T06:53:10;12.93;;;7.43;;
20008;SDS011;10165;42.662;23.260;2023-05-17T06:55:37;16.47;;;7.17;;
20008;SDS011;10165;42.662;23.260;2023-05-17T06:58:04;15.60;;;7.03;;
20008;SDS011;10165;42.662;23.260;2023-05-17T07:00:31;11.00;;;6.20;;
20008;SDS011;10165;42.662;23.260;2023-05-17T07:02:58;11.53;;;6.43;;
20008;SDS011;10165;42.662;23.260;2023-05-17T07:05:25;16.70;;;6.80;;
20008;SDS011;10165;42.662;23.260;2023-05-17T07:07:55;11.30;;;6.50;;
20008;SDS011;10165;42.662;23.260;2023-05-17T07:10:23;10.17;;;5.57;;
20008;SDS011;10165;42.662;23.260;2023-05-17T07:12:51;13.20;;;6.80;;
20008;SDS011;10165;42.662;23.260;2023-05-17T07:15:18;13.30;;;6.37;;
20008;SDS011;10165;42.662;23.260;2023-05-17T07:17:45;10.03;;;6.40;;
20008;SDS011;10165;42.662;23.260;2023-05-17T07:20:11;10.97;;;6.77;;
20008;SDS011;10165;42.662;23.260;2023-05-17T07:22:40;10.57;;;6.23;;
20008;SDS011;10165;42.662;23.260;2023-05-17T07:25:06;12.50;;;6.80;;
20008;SDS011;10165;42.662;23.260;2023-05-17T07:27:34;12.53;;;6.73;;
20008;SDS011;10165;42.662;23.260;2023-05-17T07:30:01;13.23;;;6.13;;
20008;SDS011;10165;42.662;23.260;2023-05-17T07:32:28;14.33;;;7.23;;
20008;SDS011;10165;42.662;23.260;2023-05-17T07:34:55;13.13;;;7.07;;
20008;SDS011;10165;42.662;23.260;2023-05-17T07:37:22;16.00;;;7.70;;
20008;SDS011;10165;42.662;23.260;2023-05-17T07:39:49;15.53;;;7.50;;
20008;SDS011;10165;42.662;23.260;2023-05-17T07:42:15;14.50;;;6.73;;
20008;SDS011;10165;42.662;23.260;2023-05-17T07:44:42;15.07;;;6.43;;
20008;SDS011;10165;42.662;23.260;2023-05-17T07:47:09;12.97;;;7.37;;
20008;SDS011;10165;42.662;23.260;2023-05-17T07:49:36;11.80;;;7.17;;
20008;SDS011;10165;42.662;23.260;2023-05-17T07:52:03;13.13;;;7.17;;
20008;SDS011;10165;42.662;23.260;2023-05-17T07:54:29;12.63;;;6.90;;
20008;SDS011;10165;42.662;23.260;2023-05-17T07:56:56;13.23;;;6.73;;
20008;SDS011;10165;42.662;23.260;2023-05-17T07:59:24;11.20;;;7.03;;
20008;SDS011;10165;42.662;23.260;2023-05-17T08:01:51;14.03;;;7.33;;
20008;SDS011;10165;42.662;23.260;2023-05-17T08:04:19;12.00;;;6.47;;
20008;SDS011;10165;42.662;23.260;2023-05-17T08:06:45;9.80;;;6.30;;
20008;SDS011;10165;42.662;23.260;2023-05-17T08:09:13;14.10;;;6.77;;
20008;SDS011;10165;42.662;23.260;2023-05-17T08:11:43;14.97;;;6.80;;
20008;SDS011;10165;42.662;23.260;2023-05-17T08:14:13;13.40;;;6.93;;
20008;SDS011;10165;42.662;23.260;2023-05-17T08:16:42;11.90;;;5.63;;
20008;SDS011;10165;42.662;23.260;2023-05-17T08:19:11;16.83;;;7.37;;
20008;SDS011;10165;42.662;23.260;2023-05-17T08:21:39;12.10;;;6.40;;
20008;SDS011;10165;42.662;23.260;2023-05-17T08:24:07;12.87;;;6.73;;
20008;SDS011;10165;42.662;23.260;2023-05-17T08:26:34;12.57;;;6.73;;
20008;SDS011;10165;42.662;23.260;2023-05-17T08:29:01;13.03;;;5.97;;
20008;SDS011;10165;42.662;23.260;2023-05-17T08:31:28;11.93;;;6.77;;
20008;SDS011;10165;42.662;23.260;2023-05-17T08:33:55;22.40;;;7.00;;
20008;SDS011;10165;42.662;23.260;2023-05-17T08:36:22;13.07;;;5.87;;
20008;SDS011;10165;42.662;23.260;2023-05-17T08:38:49;11.07;;;6.33;;
20008;SDS011;10165;42.662;23.260;2023-05-17T08:41:17;8.27;;;5.43;;
20008;SDS011;10165;42.662;23.260;2023-05-17T08:43:48;12.63;;;5.97;;
20008;SDS011;10165;42.662;23.260;2023-05-17T08:46:17;8.20;;;5.77;;
20008;SDS011;10165;42.662;23.260;2023-05-17T08:48:50;10.87;;;5.73;;
20008;SDS011;10165;42.662;23.260;2023-05-17T08:51:25;16.33;;;7.60;;
20008;SDS011;10165;42.662;23.260;2023-05-17T08:53:53;13.57;;;5.30;;
20008;SDS011;10165;42.662;23.260;2023-05-17T08:56:20;12.13;;;5.53;;
20008;SDS011;10165;42.662;23.260;2023-05-17T08:58:50;10.83;;;6.30;;
20008;SDS011;10165;42.662;23.260;2023-05-17T09:01:22;13.50;;;6.10;;
20008;SDS011;10165;42.662;23.260;2023-05-17T09:03:52;13.27;;;7.13;;
20008;SDS011;10165;42.662;23.260;2023-05-17T09:06:20;15.57;;;5.90;;
20008;SDS011;10165;42.662;23.260;2023-05-17T09:08:51;15.20;;;6.10;;
20008;SDS011;10165;42.662;23.260;2023-05-17T09:11:23;9.33;;;5.63;;
20008;SDS011;10165;42.662;23.260;2023-05-17T09:13:53;8.03;;;5.17;;
20008;SDS011;10165;42.662;23.260;2023-05-17T09:16:23;12.03;;;5.43;;
20008;SDS011;10165;42.662;23.260;2023-05-17T09:18:53;10.67;;;5.50;;
20008;SDS011;10165;42.662;23.260;2023-05-17T09:21:22;12.37;;;5.87;;
20008;SDS011;10165;42.662;23.260;2023-05-17T09:23:50;14.83;;;5.60;;
20008;SDS011;10165;42.662;23.260;2023-05-17T09:29:09;12.67;;;5.40;;
20008;SDS011;10165;42.662;23.260;2023-05-17T09:31:37;11.07;;;5.17;;
20008;SDS011;10165;42.662;23.260;2023-05-17T09:34:04;14.53;;;5.53;;
20008;SDS011;10165;42.662;23.260;2023-05-17T09:36:35;8.40;;;5.67;;
20008;SDS011;10165;42.662;23.260;2023-05-17T09:39:04;12.43;;;5.70;;
20008;SDS011;10165;42.662;23.260;2023-05-17T09:41:39;14.03;;;5.37;;
20008;SDS011;10165;42.662;23.260;2023-05-17T09:44:07;10.27;;;5.00;;
20008;SDS011;10165;42.662;23.260;2023-05-17T09:46:36;16.57;;;5.97;;
20008;SDS011;10165;42.662;23.260;2023-05-17T09:49:07;9.43;;;4.40;;
20008;SDS011;10165;42.662;23.260;2023-05-17T09:51:35;8.23;;;4.93;;
20008;SDS011;10165;42.662;23.260;2023-05-17T09:54:07;18.10;;;6.37;;
20008;SDS011;10165;42.662;23.260;2023-05-17T09:56:35;16.47;;;6.30;;
20008;SDS011;10165;42.662;23.260;2023-05-17T09:59:03;16.17;;;5.60;;
20008;SDS011;10165;42.662;23.260;2023-05-17T10:01:36;11.40;;;5.83;;
20008;SDS011;10165;42.662;23.260;2023-05-17T10:04:09;9.87;;;5.87;;
20008;SDS011;10165;42.662;23.260;2023-05-17T10:06:37;12.57;;;5.70;;
20008;SDS011;10165;42.662;23.260;2023-05-17T10:09:16;10.83;;;5.47;;
20008;SDS011;10165;42.662;23.260;2023-05-17T10:11:47;12.33;;;5.90;;
20008;SDS011;10165;42.662;23.260;2023-05-17T10:14:16;14.60;;;6.33;;
20008;SDS011;10165;42.662;23.260;2023-05-17T10:16:44;8.73;;;4.70;;
20008;SDS011;10165;42.662;23.260;2023-05-17T10:19:11;12.00;;;4.87;;
20008;SDS011;10165;42.662;23.260;2023-05-17T10:21:39;12.17;;;5.33;;
20008;SDS011;10165;42.662;23.260;2023-05-17T10:24:08;11.40;;;5.70;;
20008;SDS011;10165;42.662;23.260;2023-05-17T10:26:36;11.37;;;5.17;;
20008;SDS011;10165;42.662;23.260;2023-05-17T10:29:04;11.00;;;5.30;;
20008;SDS011;10165;42.662;23.260;2023-05-17T10:31:32;7.87;;;4.83;;
20008;SDS011;10165;42.662;23.260;2023-05-17T10:34:00;13.57;;;4.90;;
20008;SDS011;10165;42.662;23.260;2023-05-17T10:36:28;11.10;;;4.87;;
20008;SDS011;10165;42.662;23.260;2023-05-17T10:38:55;13.63;;;4.90;;
20008;SDS011;10165;42.662;23.260;2023-05-17T10:41:25;13.90;;;5.43;;
20008;SDS011;10165;42.662;23.260;2023-05-17T10:43:55;11.97;;;4.70;;
20008;SDS011;10165;42.662;23.260;2023-05-17T10:46:23;10.10;;;5.00;;
20008;SDS011;10165;42.662;23.260;2023-05-17T10:48:50;9.07;;;4.77;;
20008;SDS011;10165;42.662;23.260;2023-05-17T10:51:22;12.63;;;5.57;;
20008;SDS011;10165;42.662;23.260;2023-05-17T10:56:31;15.00;;;5.43;;
20008;SDS011;10165;42.662;23.260;2023-05-17T11:01:58;14.23;;;5.40;;
20008;SDS011;10165;42.662;23.260;2023-05-17T11:04:26;9.33;;;5.13;;
20008;SDS011;10165;42.662;23.260;2023-05-17T11:09:43;7.57;;;4.80;;
20008;SDS011;10165;42.662;23.260;2023-05-17T11:12:12;11.27;;;5.03;;
20008;SDS011;10165;42.662;23.260;2023-05-17T11:14:51;10.33;;;5.70;;
20008;SDS011;10165;42.662;23.260;2023-05-17T11:17:20;12.10;;;5.00;;
20008;SDS011;10165;42.662;23.260;2023-05-17T11:22:25;8.67;;;4.97;;
20008;SDS011;10165;42.662;23.260;2023-05-17T11:24:55;10.03;;;4.87;;
20008;SDS011;10165;42.662;23.260;2023-05-17T11:27:23;10.03;;;5.30;;
20008;SDS011;10165;42.662;23.260;2023-05-17T11:29:53;7.67;;;4.70;;
20008;SDS011;10165;42.662;23.260;2023-05-17T11:32:30;7.50;;;4.67;;
20008;SDS011;10165;42.662;23.260;2023-05-17T11:35:00;9.87;;;5.10;;
20008;SDS011;10165;42.662;23.260;2023-05-17T11:37:27;9.53;;;5.70;;
20008;SDS011;10165;42.662;23.260;2023-05-17T11:40:16;15.80;;;6.30;;
20008;SDS011;10165;42.662;23.260;2023-05-17T11:43:10;10.43;;;5.13;;
20008;SDS011;10165;42.662;23.260;2023-05-17T11:46:10;12.20;;;5.93;;
20008;SDS011;10165;42.662;23.260;2023-05-17T11:48:32;15.50;;;5.80;;
20008;SDS011;10165;42.662;23.260;2023-05-17T11:50:59;14.33;;;6.67;;
20008;SDS011;10165;42.662;23.260;2023-05-17T11:53:27;12.83;;;6.03;;
20008;SDS011;10165;42.662;23.260;2023-05-17T11:55:56;15.63;;;6.40;;
20008;SDS011;10165;42.662;23.260;2023-05-17T11:58:29;12.30;;;6.53;;
20008;SDS011;10165;42.662;23.260;2023-05-17T12:00:57;13.07;;;6.03;;
20008;SDS011;10165;42.662;23.260;2023-05-17T12:03:28;10.07;;;6.10;;
20008;SDS011;10165;42.662;23.260;2023-05-17T12:08:38;9.73;;;5.40;;
20008;SDS011;10165;42.662;23.260;2023-05-17T12:11:10;13.67;;;6.57;;
20008;SDS011;10165;42.662;23.260;2023-05-17T12:13:39;10.57;;;5.47;;
20008;SDS011;10165;42.662;23.260;2023-05-17T12:16:12;11.50;;;6.00;;
20008;SDS011;10165;42.662;23.260;2023-05-17T12:18:46;19.77;;;6.10;;
20008;SDS011;10165;42.662;23.260;2023-05-17T12:21:15;15.20;;;5.43;;
20008;SDS011;10165;42.662;23.260;2023-05-17T12:23:49;10.97;;;5.53;;
20008;SDS011;10165;42.662;23.260;2023-05-17T12:26:19;14.97;;;6.57;;
20008;SDS011;10165;42.662;23.260;2023-05-17T12:28:57;11.33;;;5.97;;
20008;SDS011;10165;42.662;23.260;2023-05-17T12:31:28;9.90;;;5.93;;
20008;SDS011;10165;42.662;23.260;2023-05-17T12:33:58;8.50;;;4.70;;
20008;SDS011;10165;42.662;23.260;2023-05-17T12:36:28;10.47;;;5.07;;
20008;SDS011;10165;42.662;23.260;2023-05-17T12:38:56;10.83;;;5.60;;
20008;SDS011;10165;42.662;23.260;2023-05-17T12:41:24;9.43;;;5.00;;
20008;SDS011;10165;42.662;23.260;2023-05-17T12:43:52;14.70;;;5.67;;
20008;SDS011;10165;42.662;23.260;2023-05-17T12:46:38;13.33;;;5.17;;
20008;SDS011;10165;42.662;23.260;2023-05-17T12:49:06;11.37;;;5.57;;
20008;SDS011;10165;42.662;23.260;2023-05-17T12:51:40;14.57;;;6.43;;
20008;SDS011;10165;42.662;23.260;2023-05-17T12:54:25;11.77;;;5.90;;
20008;SDS011;10165;42.662;23.260;2023-05-17T12:56:53;11.00;;;6.17;;
20008;SDS011;10165;42.662;23.260;2023-05-17T12:59:20;16.23;;;7.63;;
20008;SDS011;10165;42.662;23.260;2023-05-17T13:01:51;14.30;;;7.10;;
20008;SDS011;10165;42.662;23.260;2023-05-17T13:04:27;17.50;;;7.23;;
20008;SDS011;10165;42.662;23.260;2023-05-17T13:06:59;10.33;;;6.40;;
20008;SDS011;10165;42.662;23.260;2023-05-17T13:09:28;15.13;;;7.90;;
20008;SDS011;10165;42.662;23.260;2023-05-17T13:14:49;10.47;;;6.20;;
20008;SDS011;10165;42.662;23.260;2023-05-17T13:19:49;13.67;;;6.80;;
20008;SDS011;10165;42.662;23.260;2023-05-17T13:22:16;13.93;;;6.83;;
20008;SDS011;10165;42.662;23.260;2023-05-17T13:24:43;15.37;;;6.43;;
20008;SDS011;10165;42.662;23.260;2023-05-17T13:27:10;13.03;;;6.87;;
20008;SDS011;10165;42.662;23.260;2023-05-17T13:29:38;14.23;;;6.97;;
20008;SDS011;10165;42.662;23.260;2023-05-17T13:32:07;10.80;;;6.80;;
20008;SDS011;10165;42.662;23.260;2023-05-17T13:34:37;14.57;;;6.80;;
20008;SDS011;10165;42.662;23.260;2023-05-17T13:37:04;14.30;;;7.33;;
20008;SDS011;10165;42.662;23.260;2023-05-17T13:39:36;14.13;;;6.63;;
20008;SDS011;10165;42.662;23.260;2023-05-17T13:42:03;14.47;;;8.00;;
20008;SDS011;10165;42.662;23.260;2023-05-17T13:44:30;11.37;;;5.80;;
20008;SDS011;10165;42.662;23.260;2023-05-17T13:46:57;16.10;;;7.00;;
20008;SDS011;10165;42.662;23.260;2023-05-17T13:49:24;13.50;;;6.23;;
20008;SDS011;10165;42.662;23.260;2023-05-17T13:51:51;9.73;;;5.60;;
20008;SDS011;10165;42.662;23.260;2023-05-17T13:54:18;12.23;;;5.87;;
20008;SDS011;10165;42.662;23.260;2023-05-17T13:56:51;11.70;;;5.53;;
20008;SDS011;10165;42.662;23.260;2023-05-17T13:59:18;7.03;;;4.53;;
20008;SDS011;10165;42.662;23.260;2023-05-17T14:01:45;7.87;;;5.43;;
20008;SDS011;10165;42.662;23.260;2023-05-17T14:04:12;14.70;;;5.17;;
20008;SDS011;10165;42.662;23.260;2023-05-17T14:06:40;11.00;;;5.83;;
20008;SDS011;10165;42.662;23.260;2023-05-17T14:09:07;13.67;;;5.47;;
20008;SDS011;10165;42.662;23.260;2023-05-17T14:11:34;10.67;;;5.60;;
20008;SDS011;10165;42.662;23.260;2023-05-17T14:14:01;17.30;;;5.73;;
20008;SDS011;10165;42.662;23.260;2023-05-17T14:16:29;12.67;;;4.93;;
20008;SDS011;10165;42.662;23.260;2023-05-17T14:18:56;14.47;;;5.80;;
20008;SDS011;10165;42.662;23.260;2023-05-17T14:21:24;9.93;;;5.40;;
20008;SDS011;10165;42.662;23.260;2023-05-17T14:23:51;9.13;;;5.23;;
20008;SDS011;10165;42.662;23.260;2023-05-17T14:26:17;11.17;;;4.97;;
20008;SDS011;10165;42.662;23.260;2023-05-17T14:28:44;13.93;;;5.47;;
20008;SDS011;10165;42.662;23.260;2023-05-17T14:31:11;10.97;;;4.97;;
20008;SDS011;10165;42.662;23.260;2023-05-17T14:33:37;7.57;;;5.00;;
20008;SDS011;10165;42.662;23.260;2023-05-17T14:36:04;14.00;;;5.03;;
20008;SDS011;10165;42.662;23.260;2023-05-17T14:38:31;11.07;;;5.10;;
20008;SDS011;10165;42.662;23.260;2023-05-17T14:40:58;11.73;;;4.73;;
20008;SDS011;10165;42.662;23.260;2023-05-17T14:43:29;16.33;;;5.50;;
20008;SDS011;10165;42.662;23.260;2023-05-17T14:45:55;21.63;;;6.53;;
20008;SDS011;10165;42.662;23.260;2023-05-17T14:48:22;16.47;;;6.90;;
20008;SDS011;10165;42.662;23.260;2023-05-17T14:50:49;9.43;;;5.47;;
20008;SDS011;10165;42.662;23.260;2023-05-17T14:53:16;18.80;;;6.00;;
20008;SDS011;10165;42.662;23.260;2023-05-17T14:55:43;18.40;;;5.17;;
20008;SDS011;10165;42.662;23.260;2023-05-17T14:58:10;11.50;;;4.57;;
20008;SDS011;10165;42.662;23.260;2023-05-17T15:00:39;9.07;;;4.10;;
20008;SDS011;10165;42.662;23.260;2023-05-17T15:03:07;11.07;;;5.00;;
20008;SDS011;10165;42.662;23.260;2023-05-17T15:05:34;12.07;;;5.73;;